sensor_id;sensor_type;location;lat;lon;timestamp;P1;durP1;ratioP1;P2;durP2;ratioP2
64387;SDS011;50709;52.648;4.764;2023-06-22T00:01:49;28.52;;;15.60;;
64387;SDS011;50709;52.648;4.764;2023-06-22T00:04:14;28.27;;;15.77;;
64387;SDS011;50709;52.648;4.764;2023-06-22T00:06:39;28.17;;;16.10;;
64387;SDS011;50709;52.648;4.764;2023-06-22T00:09:05;31.83;;;16.73;;
64387;SDS011;50709;52.648;4.764;2023-06-22T00:11:32;29.77;;;16.35;;
64387;SDS011;50709;52.648;4.764;2023-06-22T00:13:58;32.00;;;18.08;;
64387;SDS011;50709;52.648;4.764;2023-06-22T00:16:24;30.17;;;16.55;;
64387;SDS011;50709;52.648;4.764;2023-06-22T00:18:49;28.40;;;16.40;;
64387;SDS011;50709;52.648;4.764;2023-06-22T00:21:14;27.73;;;15.77;;
64387;SDS011;50709;52.648;4.764;2023-06-22T00:23:40;31.38;;;15.60;;
64387;SDS011;50709;52.648;4.764;2023-06-22T00:26:06;30.80;;;16.83;;
64387;SDS011;50709;52.648;4.764;2023-06-22T00:28:31;25.65;;;14.52;;
64387;SDS011;50709;52.648;4.764;2023-06-22T00:30:57;29.00;;;16.13;;
64387;SDS011;50709;52.648;4.764;2023-06-22T00:33:22;30.10;;;16.92;;
64387;SDS011;50709;52.648;4.764;2023-06-22T00:35:48;30.98;;;16.02;;
64387;SDS011;50709;52.648;4.764;2023-06-22T00:38:13;29.63;;;16.25;;
64387;SDS011;50709;52.648;4.764;2023-06-22T00:40:39;32.60;;;16.10;;
64387;SDS011;50709;52.648;4.764;2023-06-22T00:43:04;32.78;;;16.83;;
64387;SDS011;50709;52.648;4.764;2023-06-22T00:45:30;26.65;;;15.20;;
64387;SDS011;50709;52.648;4.764;2023-06-22T00:47:58;32.70;;;17.58;;
64387;SDS011;50709;52.648;4.764;2023-06-22T00:50:25;29.50;;;15.70;;
64387;SDS011;50709;52.648;4.764;2023-06-22T00:52:52;27.42;;;15.35;;
64387;SDS011;50709;52.648;4.764;2023-06-22T00:55:21;31.92;;;16.13;;
64387;SDS011;50709;52.648;4.764;2023-06-22T00:57:47;33.53;;;18.02;;
64387;SDS011;50709;52.648;4.764;2023-06-22T01:00:13;28.23;;;15.75;;
64387;SDS011;50709;52.648;4.764;2023-06-22T01:02:42;29.10;;;16.15;;
64387;SDS011;50709;52.648;4.764;2023-06-22T01:05:10;30.40;;;16.75;;
64387;SDS011;50709;52.648;4.764;2023-06-22T01:08:02;33.17;;;16.85;;
64387;SDS011;50709;52.648;4.764;2023-06-22T01:13:22;34.15;;;17.75;;
64387;SDS011;50709;52.648;4.764;2023-06-22T01:16:01;29.70;;;16.17;;
64387;SDS011;50709;52.648;4.764;2023-06-22T01:18:28;30.98;;;17.17;;
64387;SDS011;50709;52.648;4.764;2023-06-22T01:20:56;28.70;;;16.30;;
64387;SDS011;50709;52.648;4.764;2023-06-22T01:29:07;36.97;;;19.30;;
64387;SDS011;50709;52.648;4.764;2023-06-22T01:31:37;37.05;;;19.38;;
64387;SDS011;50709;52.648;4.764;2023-06-22T01:34:04;38.67;;;20.50;;
64387;SDS011;50709;52.648;4.764;2023-06-22T01:36:31;36.25;;;20.05;;
64387;SDS011;50709;52.648;4.764;2023-06-22T01:38:58;38.25;;;19.67;;
64387;SDS011;50709;52.648;4.764;2023-06-22T01:41:25;35.78;;;19.67;;
64387;SDS011;50709;52.648;4.764;2023-06-22T01:43:52;32.67;;;18.38;;
64387;SDS011;50709;52.648;4.764;2023-06-22T01:46:19;35.28;;;18.95;;
64387;SDS011;50709;52.648;4.764;2023-06-22T01:48:46;34.72;;;17.73;;
64387;SDS011;50709;52.648;4.764;2023-06-22T01:51:12;34.60;;;18.52;;
64387;SDS011;50709;52.648;4.764;2023-06-22T01:53:38;38.00;;;18.02;;
64387;SDS011;50709;52.648;4.764;2023-06-22T01:56:04;34.28;;;18.40;;
64387;SDS011;50709;52.648;4.764;2023-06-22T01:58:30;29.77;;;17.02;;
64387;SDS011;50709;52.648;4.764;2023-06-22T02:01:09;33.47;;;17.90;;
64387;SDS011;50709;52.648;4.764;2023-06-22T02:03:47;34.20;;;18.35;;
64387;SDS011;50709;52.648;4.764;2023-06-22T02:06:27;32.58;;;17.23;;
64387;SDS011;50709;52.648;4.764;2023-06-22T02:09:00;32.63;;;17.35;;
64387;SDS011;50709;52.648;4.764;2023-06-22T02:11:28;30.15;;;16.90;;
64387;SDS011;50709;52.648;4.764;2023-06-22T02:13:56;33.63;;;16.88;;
64387;SDS011;50709;52.648;4.764;2023-06-22T02:16:22;29.85;;;17.70;;
64387;SDS011;50709;52.648;4.764;2023-06-22T02:18:49;32.58;;;17.02;;
64387;SDS011;50709;52.648;4.764;2023-06-22T02:21:16;33.80;;;17.92;;
64387;SDS011;50709;52.648;4.764;2023-06-22T02:23:45;32.95;;;17.92;;
64387;SDS011;50709;52.648;4.764;2023-06-22T02:26:11;32.72;;;17.33;;
64387;SDS011;50709;52.648;4.764;2023-06-22T02:28:37;29.17;;;16.95;;
64387;SDS011;50709;52.648;4.764;2023-06-22T02:31:02;29.65;;;18.35;;
64387;SDS011;50709;52.648;4.764;2023-06-22T02:33:27;29.10;;;17.42;;
64387;SDS011;50709;52.648;4.764;2023-06-22T02:35:53;32.75;;;18.25;;
64387;SDS011;50709;52.648;4.764;2023-06-22T02:38:19;28.35;;;17.65;;
64387;SDS011;50709;52.648;4.764;2023-06-22T02:40:45;32.05;;;17.65;;
64387;SDS011;50709;52.648;4.764;2023-06-22T02:43:10;30.45;;;17.58;;
64387;SDS011;50709;52.648;4.764;2023-06-22T02:45:35;30.52;;;18.13;;
64387;SDS011;50709;52.648;4.764;2023-06-22T02:48:01;30.92;;;17.90;;
64387;SDS011;50709;52.648;4.764;2023-06-22T02:50:26;32.85;;;19.13;;
64387;SDS011;50709;52.648;4.764;2023-06-22T02:52:52;33.65;;;19.27;;
64387;SDS011;50709;52.648;4.764;2023-06-22T02:55:17;31.60;;;18.80;;
64387;SDS011;50709;52.648;4.764;2023-06-22T02:57:43;35.50;;;19.15;;
64387;SDS011;50709;52.648;4.764;2023-06-22T03:00:10;33.08;;;19.58;;
64387;SDS011;50709;52.648;4.764;2023-06-22T03:02:42;35.35;;;19.77;;
64387;SDS011;50709;52.648;4.764;2023-06-22T03:05:08;35.67;;;20.27;;
64387;SDS011;50709;52.648;4.764;2023-06-22T03:07:38;34.55;;;18.58;;
64387;SDS011;50709;52.648;4.764;2023-06-22T03:10:04;34.65;;;19.50;;
64387;SDS011;50709;52.648;4.764;2023-06-22T03:12:30;32.30;;;19.10;;
64387;SDS011;50709;52.648;4.764;2023-06-22T03:14:55;36.17;;;19.13;;
64387;SDS011;50709;52.648;4.764;2023-06-22T03:17:20;33.85;;;19.25;;
64387;SDS011;50709;52.648;4.764;2023-06-22T03:19:46;34.40;;;19.60;;
64387;SDS011;50709;52.648;4.764;2023-06-22T03:22:11;29.88;;;17.60;;
64387;SDS011;50709;52.648;4.764;2023-06-22T03:24:36;32.78;;;19.30;;
64387;SDS011;50709;52.648;4.764;2023-06-22T03:27:04;31.77;;;18.92;;
64387;SDS011;50709;52.648;4.764;2023-06-22T03:29:30;35.08;;;18.73;;
64387;SDS011;50709;52.648;4.764;2023-06-22T03:31:56;29.80;;;18.60;;
64387;SDS011;50709;52.648;4.764;2023-06-22T03:34:21;32.00;;;17.88;;
64387;SDS011;50709;52.648;4.764;2023-06-22T03:36:46;32.70;;;17.98;;
64387;SDS011;50709;52.648;4.764;2023-06-22T03:39:12;31.77;;;18.40;;
64387;SDS011;50709;52.648;4.764;2023-06-22T03:41:37;32.65;;;18.05;;
64387;SDS011;50709;52.648;4.764;2023-06-22T03:44:04;32.40;;;18.23;;
64387;SDS011;50709;52.648;4.764;2023-06-22T03:46:29;29.92;;;17.45;;
64387;SDS011;50709;52.648;4.764;2023-06-22T03:48:54;30.02;;;17.33;;
64387;SDS011;50709;52.648;4.764;2023-06-22T03:51:20;33.60;;;18.77;;
64387;SDS011;50709;52.648;4.764;2023-06-22T03:53:45;32.15;;;17.70;;
64387;SDS011;50709;52.648;4.764;2023-06-22T03:56:11;30.45;;;17.83;;
64387;SDS011;50709;52.648;4.764;2023-06-22T03:58:36;29.98;;;17.25;;
64387;SDS011;50709;52.648;4.764;2023-06-22T04:01:07;31.45;;;17.75;;
64387;SDS011;50709;52.648;4.764;2023-06-22T04:03:36;28.88;;;16.80;;
64387;SDS011;50709;52.648;4.764;2023-06-22T04:06:02;30.02;;;16.58;;
64387;SDS011;50709;52.648;4.764;2023-06-22T04:08:27;24.15;;;14.85;;
64387;SDS011;50709;52.648;4.764;2023-06-22T04:10:53;29.88;;;17.40;;
64387;SDS011;50709;52.648;4.764;2023-06-22T04:13:18;28.17;;;17.50;;
64387;SDS011;50709;52.648;4.764;2023-06-22T04:15:44;31.35;;;17.42;;
64387;SDS011;50709;52.648;4.764;2023-06-22T04:18:10;30.40;;;17.48;;
64387;SDS011;50709;52.648;4.764;2023-06-22T04:20:35;27.40;;;17.20;;
64387;SDS011;50709;52.648;4.764;2023-06-22T04:23:01;30.70;;;17.08;;
64387;SDS011;50709;52.648;4.764;2023-06-22T04:25:26;24.33;;;15.52;;
64387;SDS011;50709;52.648;4.764;2023-06-22T04:27:52;24.83;;;15.27;;
64387;SDS011;50709;52.648;4.764;2023-06-22T04:30:17;29.55;;;16.80;;
64387;SDS011;50709;52.648;4.764;2023-06-22T04:32:43;28.13;;;16.98;;
64387;SDS011;50709;52.648;4.764;2023-06-22T04:35:09;29.13;;;16.80;;
64387;SDS011;50709;52.648;4.764;2023-06-22T04:37:35;27.60;;;16.20;;
64387;SDS011;50709;52.648;4.764;2023-06-22T04:40:00;26.15;;;17.35;;
64387;SDS011;50709;52.648;4.764;2023-06-22T04:42:26;28.75;;;17.60;;
64387;SDS011;50709;52.648;4.764;2023-06-22T04:44:52;31.02;;;17.83;;
64387;SDS011;50709;52.648;4.764;2023-06-22T04:47:17;30.35;;;18.05;;
64387;SDS011;50709;52.648;4.764;2023-06-22T04:49:43;26.42;;;17.00;;
64387;SDS011;50709;52.648;4.764;2023-06-22T04:52:09;29.77;;;17.42;;
64387;SDS011;50709;52.648;4.764;2023-06-22T04:54:36;26.83;;;16.60;;
64387;SDS011;50709;52.648;4.764;2023-06-22T04:57:03;27.92;;;17.00;;
64387;SDS011;50709;52.648;4.764;2023-06-22T04:59:35;28.42;;;17.67;;
64387;SDS011;50709;52.648;4.764;2023-06-22T05:02:01;27.35;;;16.35;;
64387;SDS011;50709;52.648;4.764;2023-06-22T05:04:28;30.45;;;17.70;;
64387;SDS011;50709;52.648;4.764;2023-06-22T05:06:56;27.88;;;16.98;;
64387;SDS011;50709;52.648;4.764;2023-06-22T05:09:22;27.40;;;16.85;;
64387;SDS011;50709;52.648;4.764;2023-06-22T05:11:48;29.27;;;17.60;;
64387;SDS011;50709;52.648;4.764;2023-06-22T05:14:14;31.55;;;17.92;;
64387;SDS011;50709;52.648;4.764;2023-06-22T05:16:41;28.17;;;16.85;;
64387;SDS011;50709;52.648;4.764;2023-06-22T05:19:07;31.60;;;17.02;;
64387;SDS011;50709;52.648;4.764;2023-06-22T05:21:33;29.77;;;17.38;;
64387;SDS011;50709;52.648;4.764;2023-06-22T05:23:58;29.63;;;17.27;;
64387;SDS011;50709;52.648;4.764;2023-06-22T05:26:28;30.23;;;18.00;;
64387;SDS011;50709;52.648;4.764;2023-06-22T05:28:57;29.77;;;17.80;;
64387;SDS011;50709;52.648;4.764;2023-06-22T05:31:23;28.33;;;17.73;;
64387;SDS011;50709;52.648;4.764;2023-06-22T05:33:49;32.65;;;19.23;;
64387;SDS011;50709;52.648;4.764;2023-06-22T05:36:16;32.58;;;19.73;;
64387;SDS011;50709;52.648;4.764;2023-06-22T05:38:41;28.70;;;16.70;;
64387;SDS011;50709;52.648;4.764;2023-06-22T05:41:07;26.65;;;17.23;;
64387;SDS011;50709;52.648;4.764;2023-06-22T05:43:33;31.33;;;18.10;;
64387;SDS011;50709;52.648;4.764;2023-06-22T05:45:59;28.33;;;17.27;;
64387;SDS011;50709;52.648;4.764;2023-06-22T05:48:25;30.83;;;18.60;;
64387;SDS011;50709;52.648;4.764;2023-06-22T05:50:51;32.00;;;20.00;;
64387;SDS011;50709;52.648;4.764;2023-06-22T05:53:17;28.52;;;17.05;;
64387;SDS011;50709;52.648;4.764;2023-06-22T05:55:42;37.60;;;21.95;;
64387;SDS011;50709;52.648;4.764;2023-06-22T05:58:07;32.95;;;19.80;;
64387;SDS011;50709;52.648;4.764;2023-06-22T06:00:33;28.45;;;18.38;;
64387;SDS011;50709;52.648;4.764;2023-06-22T06:02:59;33.10;;;18.02;;
64387;SDS011;50709;52.648;4.764;2023-06-22T06:05:30;30.75;;;18.35;;
64387;SDS011;50709;52.648;4.764;2023-06-22T06:07:56;31.88;;;19.23;;
64387;SDS011;50709;52.648;4.764;2023-06-22T06:10:21;33.20;;;19.23;;
64387;SDS011;50709;52.648;4.764;2023-06-22T06:12:47;30.48;;;19.58;;
64387;SDS011;50709;52.648;4.764;2023-06-22T06:15:13;34.42;;;19.63;;
64387;SDS011;50709;52.648;4.764;2023-06-22T06:17:47;39.13;;;25.67;;
64387;SDS011;50709;52.648;4.764;2023-06-22T06:20:14;33.22;;;20.15;;
64387;SDS011;50709;52.648;4.764;2023-06-22T06:22:41;33.55;;;21.55;;
64387;SDS011;50709;52.648;4.764;2023-06-22T06:25:07;36.30;;;21.20;;
64387;SDS011;50709;52.648;4.764;2023-06-22T06:27:33;30.90;;;19.67;;
64387;SDS011;50709;52.648;4.764;2023-06-22T06:29:59;30.35;;;19.35;;
64387;SDS011;50709;52.648;4.764;2023-06-22T06:32:24;36.17;;;19.73;;
64387;SDS011;50709;52.648;4.764;2023-06-22T06:34:49;37.05;;;23.40;;
64387;SDS011;50709;52.648;4.764;2023-06-22T06:37:15;37.03;;;23.60;;
64387;SDS011;50709;52.648;4.764;2023-06-22T06:39:40;35.63;;;20.67;;
64387;SDS011;50709;52.648;4.764;2023-06-22T06:42:06;31.77;;;19.27;;
64387;SDS011;50709;52.648;4.764;2023-06-22T06:44:31;30.65;;;19.48;;
64387;SDS011;50709;52.648;4.764;2023-06-22T06:46:56;35.22;;;21.70;;
64387;SDS011;50709;52.648;4.764;2023-06-22T06:49:22;33.58;;;20.85;;
64387;SDS011;50709;52.648;4.764;2023-06-22T06:51:47;33.67;;;20.80;;
64387;SDS011;50709;52.648;4.764;2023-06-22T06:54:13;30.02;;;18.25;;
64387;SDS011;50709;52.648;4.764;2023-06-22T06:56:38;34.60;;;22.17;;
64387;SDS011;50709;52.648;4.764;2023-06-22T06:59:04;32.35;;;22.35;;
64387;SDS011;50709;52.648;4.764;2023-06-22T07:01:29;32.65;;;21.48;;
64387;SDS011;50709;52.648;4.764;2023-06-22T07:03:58;34.05;;;21.25;;
64387;SDS011;50709;52.648;4.764;2023-06-22T07:06:25;33.15;;;22.60;;
64387;SDS011;50709;52.648;4.764;2023-06-22T07:08:54;24.58;;;16.52;;
64387;SDS011;50709;52.648;4.764;2023-06-22T07:11:20;25.63;;;16.88;;
64387;SDS011;50709;52.648;4.764;2023-06-22T07:13:45;25.75;;;15.68;;
64387;SDS011;50709;52.648;4.764;2023-06-22T07:16:11;25.40;;;16.48;;
64387;SDS011;50709;52.648;4.764;2023-06-22T07:18:36;25.67;;;17.15;;
64387;SDS011;50709;52.648;4.764;2023-06-22T07:21:01;27.05;;;16.70;;
64387;SDS011;50709;52.648;4.764;2023-06-22T07:23:29;25.02;;;17.58;;
64387;SDS011;50709;52.648;4.764;2023-06-22T07:25:54;27.88;;;18.20;;
64387;SDS011;50709;52.648;4.764;2023-06-22T07:28:20;25.17;;;19.08;;
64387;SDS011;50709;52.648;4.764;2023-06-22T07:30:45;23.25;;;15.90;;
64387;SDS011;50709;52.648;4.764;2023-06-22T07:33:12;25.00;;;18.08;;
64387;SDS011;50709;52.648;4.764;2023-06-22T07:35:38;26.80;;;20.02;;
64387;SDS011;50709;52.648;4.764;2023-06-22T07:38:03;27.23;;;16.88;;
64387;SDS011;50709;52.648;4.764;2023-06-22T07:40:29;26.10;;;19.33;;
64387;SDS011;50709;52.648;4.764;2023-06-22T07:42:54;23.58;;;16.00;;
64387;SDS011;50709;52.648;4.764;2023-06-22T07:45:20;24.40;;;16.85;;
64387;SDS011;50709;52.648;4.764;2023-06-22T07:47:45;22.85;;;15.18;;
64387;SDS011;50709;52.648;4.764;2023-06-22T07:50:11;21.63;;;15.20;;
64387;SDS011;50709;52.648;4.764;2023-06-22T07:52:36;21.95;;;13.85;;
64387;SDS011;50709;52.648;4.764;2023-06-22T07:55:02;23.55;;;16.65;;
64387;SDS011;50709;52.648;4.764;2023-06-22T07:57:28;17.60;;;12.50;;
64387;SDS011;50709;52.648;4.764;2023-06-22T08:00:01;19.95;;;14.38;;
64387;SDS011;50709;52.648;4.764;2023-06-22T08:02:33;21.23;;;14.60;;
64387;SDS011;50709;52.648;4.764;2023-06-22T08:04:58;19.17;;;14.02;;
64387;SDS011;50709;52.648;4.764;2023-06-22T08:07:23;20.55;;;13.23;;
64387;SDS011;50709;52.648;4.764;2023-06-22T08:09:51;21.38;;;14.52;;
64387;SDS011;50709;52.648;4.764;2023-06-22T08:12:17;18.83;;;12.85;;
64387;SDS011;50709;52.648;4.764;2023-06-22T08:14:42;17.05;;;12.02;;
64387;SDS011;50709;52.648;4.764;2023-06-22T08:17:11;15.65;;;11.32;;
64387;SDS011;50709;52.648;4.764;2023-06-22T08:19:36;21.13;;;16.60;;
64387;SDS011;50709;52.648;4.764;2023-06-22T08:22:02;17.92;;;14.07;;
64387;SDS011;50709;52.648;4.764;2023-06-22T08:24:28;19.58;;;12.90;;
64387;SDS011;50709;52.648;4.764;2023-06-22T08:26:55;18.75;;;13.85;;
64387;SDS011;50709;52.648;4.764;2023-06-22T08:29:22;20.42;;;14.80;;
64387;SDS011;50709;52.648;4.764;2023-06-22T08:31:48;17.90;;;12.10;;
64387;SDS011;50709;52.648;4.764;2023-06-22T08:34:13;15.73;;;11.23;;
64387;SDS011;50709;52.648;4.764;2023-06-22T08:36:38;18.85;;;14.13;;
64387;SDS011;50709;52.648;4.764;2023-06-22T08:39:09;16.70;;;12.40;;
64387;SDS011;50709;52.648;4.764;2023-06-22T08:41:35;20.13;;;10.80;;
64387;SDS011;50709;52.648;4.764;2023-06-22T08:44:00;14.68;;;11.07;;
64387;SDS011;50709;52.648;4.764;2023-06-22T08:46:26;20.90;;;14.52;;
64387;SDS011;50709;52.648;4.764;2023-06-22T08:48:55;16.50;;;10.73;;
64387;SDS011;50709;52.648;4.764;2023-06-22T08:51:22;14.65;;;10.05;;
64387;SDS011;50709;52.648;4.764;2023-06-22T08:53:48;16.67;;;12.15;;
64387;SDS011;50709;52.648;4.764;2023-06-22T08:56:13;15.90;;;10.75;;
64387;SDS011;50709;52.648;4.764;2023-06-22T08:58:38;15.75;;;10.73;;
64387;SDS011;50709;52.648;4.764;2023-06-22T09:01:04;12.35;;;8.38;;
64387;SDS011;50709;52.648;4.764;2023-06-22T09:03:29;15.40;;;10.80;;
64387;SDS011;50709;52.648;4.764;2023-06-22T09:05:57;12.52;;;8.50;;
64387;SDS011;50709;52.648;4.764;2023-06-22T09:08:24;15.70;;;9.80;;
64387;SDS011;50709;52.648;4.764;2023-06-22T09:10:49;17.00;;;11.52;;
64387;SDS011;50709;52.648;4.764;2023-06-22T09:13:15;17.38;;;12.10;;
64387;SDS011;50709;52.648;4.764;2023-06-22T09:15:40;16.60;;;10.18;;
64387;SDS011;50709;52.648;4.764;2023-06-22T09:18:06;16.80;;;10.88;;
64387;SDS011;50709;52.648;4.764;2023-06-22T09:20:31;13.13;;;8.82;;
64387;SDS011;50709;52.648;4.764;2023-06-22T09:22:57;13.35;;;8.98;;
64387;SDS011;50709;52.648;4.764;2023-06-22T09:25:23;14.77;;;11.45;;
64387;SDS011;50709;52.648;4.764;2023-06-22T09:27:48;16.80;;;10.93;;
64387;SDS011;50709;52.648;4.764;2023-06-22T09:30:13;15.98;;;11.07;;
64387;SDS011;50709;52.648;4.764;2023-06-22T09:32:39;12.88;;;10.18;;
64387;SDS011;50709;52.648;4.764;2023-06-22T09:35:05;15.95;;;10.90;;
64387;SDS011;50709;52.648;4.764;2023-06-22T09:37:31;14.60;;;10.13;;
64387;SDS011;50709;52.648;4.764;2023-06-22T09:39:57;14.32;;;9.80;;
64387;SDS011;50709;52.648;4.764;2023-06-22T09:42:22;14.05;;;8.60;;
64387;SDS011;50709;52.648;4.764;2023-06-22T09:44:50;9.45;;;7.32;;
64387;SDS011;50709;52.648;4.764;2023-06-22T09:47:16;18.25;;;12.95;;
64387;SDS011;50709;52.648;4.764;2023-06-22T09:49:41;15.45;;;9.50;;
64387;SDS011;50709;52.648;4.764;2023-06-22T09:52:07;12.43;;;8.23;;
64387;SDS011;50709;52.648;4.764;2023-06-22T09:54:33;15.95;;;10.23;;
64387;SDS011;50709;52.648;4.764;2023-06-22T09:56:58;13.13;;;8.45;;
64387;SDS011;50709;52.648;4.764;2023-06-22T09:59:23;16.25;;;11.50;;
64387;SDS011;50709;52.648;4.764;2023-06-22T10:01:49;15.30;;;10.55;;
64387;SDS011;50709;52.648;4.764;2023-06-22T10:04:14;13.55;;;9.52;;
64387;SDS011;50709;52.648;4.764;2023-06-22T10:06:40;14.77;;;9.90;;
64387;SDS011;50709;52.648;4.764;2023-06-22T10:09:06;18.35;;;12.30;;
64387;SDS011;50709;52.648;4.764;2023-06-22T10:11:34;11.82;;;7.65;;
64387;SDS011;50709;52.648;4.764;2023-06-22T10:14:00;15.02;;;9.63;;
64387;SDS011;50709;52.648;4.764;2023-06-22T10:16:32;15.88;;;11.52;;
64387;SDS011;50709;52.648;4.764;2023-06-22T10:19:00;15.50;;;11.07;;
64387;SDS011;50709;52.648;4.764;2023-06-22T10:21:25;16.60;;;10.43;;
64387;SDS011;50709;52.648;4.764;2023-06-22T10:23:52;15.77;;;11.90;;
64387;SDS011;50709;52.648;4.764;2023-06-22T10:26:18;15.32;;;10.13;;
64387;SDS011;50709;52.648;4.764;2023-06-22T10:28:43;14.93;;;9.57;;
64387;SDS011;50709;52.648;4.764;2023-06-22T10:31:08;11.48;;;7.80;;
64387;SDS011;50709;52.648;4.764;2023-06-22T10:33:34;13.65;;;8.75;;
64387;SDS011;50709;52.648;4.764;2023-06-22T10:35:59;16.83;;;11.38;;
64387;SDS011;50709;52.648;4.764;2023-06-22T10:38:25;10.32;;;7.50;;
64387;SDS011;50709;52.648;4.764;2023-06-22T10:40:50;14.13;;;9.55;;
64387;SDS011;50709;52.648;4.764;2023-06-22T10:43:16;16.58;;;10.00;;
64387;SDS011;50709;52.648;4.764;2023-06-22T10:45:41;12.65;;;8.90;;
64387;SDS011;50709;52.648;4.764;2023-06-22T10:48:07;16.05;;;11.45;;
64387;SDS011;50709;52.648;4.764;2023-06-22T10:50:32;12.35;;;9.30;;
64387;SDS011;50709;52.648;4.764;2023-06-22T10:52:57;19.38;;;11.75;;
64387;SDS011;50709;52.648;4.764;2023-06-22T10:55:23;14.93;;;10.90;;
64387;SDS011;50709;52.648;4.764;2023-06-22T10:57:48;15.25;;;10.90;;
64387;SDS011;50709;52.648;4.764;2023-06-22T11:00:15;16.38;;;10.52;;
64387;SDS011;50709;52.648;4.764;2023-06-22T11:02:40;17.67;;;11.73;;
64387;SDS011;50709;52.648;4.764;2023-06-22T11:05:06;11.85;;;8.73;;
64387;SDS011;50709;52.648;4.764;2023-06-22T11:07:32;13.85;;;9.55;;
64387;SDS011;50709;52.648;4.764;2023-06-22T11:09:58;13.57;;;9.05;;
64387;SDS011;50709;52.648;4.764;2023-06-22T11:12:23;11.35;;;8.18;;
64387;SDS011;50709;52.648;4.764;2023-06-22T11:14:49;15.43;;;9.40;;
64387;SDS011;50709;52.648;4.764;2023-06-22T11:17:16;10.20;;;7.97;;
64387;SDS011;50709;52.648;4.764;2023-06-22T11:19:43;11.52;;;8.90;;
64387;SDS011;50709;52.648;4.764;2023-06-22T11:22:09;13.90;;;8.73;;
64387;SDS011;50709;52.648;4.764;2023-06-22T11:24:34;14.73;;;10.63;;
64387;SDS011;50709;52.648;4.764;2023-06-22T11:27:00;10.88;;;8.57;;
64387;SDS011;50709;52.648;4.764;2023-06-22T11:29:25;13.70;;;7.88;;
64387;SDS011;50709;52.648;4.764;2023-06-22T11:31:51;14.27;;;9.02;;
64387;SDS011;50709;52.648;4.764;2023-06-22T11:34:17;13.73;;;9.85;;
64387;SDS011;50709;52.648;4.764;2023-06-22T11:36:44;12.35;;;7.97;;
64387;SDS011;50709;52.648;4.764;2023-06-22T11:39:10;13.02;;;9.30;;
64387;SDS011;50709;52.648;4.764;2023-06-22T11:41:35;12.10;;;8.20;;
64387;SDS011;50709;52.648;4.764;2023-06-22T11:44:01;11.93;;;8.27;;
64387;SDS011;50709;52.648;4.764;2023-06-22T11:46:26;12.90;;;9.15;;
64387;SDS011;50709;52.648;4.764;2023-06-22T11:48:52;14.15;;;9.48;;
64387;SDS011;50709;52.648;4.764;2023-06-22T11:51:17;10.77;;;8.45;;
64387;SDS011;50709;52.648;4.764;2023-06-22T11:53:43;12.82;;;9.50;;
64387;SDS011;50709;52.648;4.764;2023-06-22T11:56:08;8.88;;;6.20;;
64387;SDS011;50709;52.648;4.764;2023-06-22T11:58:33;9.88;;;7.10;;
64387;SDS011;50709;52.648;4.764;2023-06-22T12:00:59;16.73;;;9.70;;
64387;SDS011;50709;52.648;4.764;2023-06-22T12:03:24;12.38;;;9.20;;
64387;SDS011;50709;52.648;4.764;2023-06-22T12:05:50;14.20;;;8.15;;
64387;SDS011;50709;52.648;4.764;2023-06-22T12:08:17;11.60;;;9.68;;
64387;SDS011;50709;52.648;4.764;2023-06-22T12:10:42;11.10;;;8.02;;
64387;SDS011;50709;52.648;4.764;2023-06-22T12:13:08;13.98;;;9.82;;
64387;SDS011;50709;52.648;4.764;2023-06-22T12:15:33;15.32;;;10.55;;
64387;SDS011;50709;52.648;4.764;2023-06-22T12:17:58;10.98;;;8.10;;
64387;SDS011;50709;52.648;4.764;2023-06-22T12:20:24;11.63;;;8.00;;
64387;SDS011;50709;52.648;4.764;2023-06-22T12:22:49;12.90;;;9.52;;
64387;SDS011;50709;52.648;4.764;2023-06-22T12:25:16;13.48;;;9.57;;
64387;SDS011;50709;52.648;4.764;2023-06-22T12:27:42;11.23;;;7.80;;
64387;SDS011;50709;52.648;4.764;2023-06-22T12:30:08;10.23;;;6.65;;
64387;SDS011;50709;52.648;4.764;2023-06-22T12:32:33;12.50;;;7.07;;
64387;SDS011;50709;52.648;4.764;2023-06-22T12:34:59;9.90;;;7.57;;
64387;SDS011;50709;52.648;4.764;2023-06-22T12:37:24;11.82;;;7.20;;
64387;SDS011;50709;52.648;4.764;2023-06-22T12:39:50;10.77;;;6.88;;
64387;SDS011;50709;52.648;4.764;2023-06-22T12:42:16;11.68;;;8.20;;
64387;SDS011;50709;52.648;4.764;2023-06-22T12:44:42;9.82;;;7.57;;
64387;SDS011;50709;52.648;4.764;2023-06-22T12:47:08;10.10;;;6.38;;
64387;SDS011;50709;52.648;4.764;2023-06-22T12:49:36;7.93;;;5.68;;
64387;SDS011;50709;52.648;4.764;2023-06-22T12:52:02;10.25;;;6.95;;
64387;SDS011;50709;52.648;4.764;2023-06-22T12:54:29;8.48;;;5.95;;
64387;SDS011;50709;52.648;4.764;2023-06-22T12:56:54;9.27;;;5.82;;
64387;SDS011;50709;52.648;4.764;2023-06-22T12:59:20;8.95;;;6.20;;
64387;SDS011;50709;52.648;4.764;2023-06-22T13:01:46;10.10;;;6.18;;
64387;SDS011;50709;52.648;4.764;2023-06-22T13:04:12;8.65;;;5.90;;
64387;SDS011;50709;52.648;4.764;2023-06-22T13:06:41;9.88;;;5.72;;
64387;SDS011;50709;52.648;4.764;2023-06-22T13:09:07;9.32;;;6.43;;
64387;SDS011;50709;52.648;4.764;2023-06-22T13:11:33;8.48;;;6.38;;
64387;SDS011;50709;52.648;4.764;2023-06-22T13:13:59;9.40;;;5.90;;
64387;SDS011;50709;52.648;4.764;2023-06-22T13:16:24;9.18;;;5.68;;
64387;SDS011;50709;52.648;4.764;2023-06-22T13:18:50;8.05;;;5.03;;
64387;SDS011;50709;52.648;4.764;2023-06-22T13:21:15;7.03;;;5.13;;
64387;SDS011;50709;52.648;4.764;2023-06-22T13:23:40;6.82;;;4.90;;
64387;SDS011;50709;52.648;4.764;2023-06-22T13:26:07;7.15;;;5.20;;
64387;SDS011;50709;52.648;4.764;2023-06-22T13:28:35;8.93;;;5.47;;
64387;SDS011;50709;52.648;4.764;2023-06-22T13:31:01;7.93;;;5.35;;
64387;SDS011;50709;52.648;4.764;2023-06-22T13:33:26;8.77;;;5.18;;
64387;SDS011;50709;52.648;4.764;2023-06-22T13:35:52;7.63;;;5.00;;
64387;SDS011;50709;52.648;4.764;2023-06-22T13:38:17;9.55;;;5.30;;
64387;SDS011;50709;52.648;4.764;2023-06-22T13:40:43;6.78;;;5.13;;
64387;SDS011;50709;52.648;4.764;2023-06-22T13:43:08;6.65;;;5.05;;
64387;SDS011;50709;52.648;4.764;2023-06-22T13:45:34;9.32;;;5.70;;
64387;SDS011;50709;52.648;4.764;2023-06-22T13:47:59;9.50;;;5.72;;
64387;SDS011;50709;52.648;4.764;2023-06-22T13:50:25;7.97;;;5.35;;
64387;SDS011;50709;52.648;4.764;2023-06-22T13:52:50;8.40;;;5.05;;
64387;SDS011;50709;52.648;4.764;2023-06-22T13:55:15;11.20;;;6.00;;
64387;SDS011;50709;52.648;4.764;2023-06-22T13:57:42;9.15;;;5.53;;
64387;SDS011;50709;52.648;4.764;2023-06-22T14:00:07;6.95;;;5.15;;
64387;SDS011;50709;52.648;4.764;2023-06-22T14:02:34;7.22;;;5.20;;
64387;SDS011;50709;52.648;4.764;2023-06-22T14:04:59;6.30;;;4.28;;
64387;SDS011;50709;52.648;4.764;2023-06-22T14:07:25;6.07;;;4.57;;
64387;SDS011;50709;52.648;4.764;2023-06-22T14:09:50;8.65;;;4.72;;
64387;SDS011;50709;52.648;4.764;2023-06-22T14:12:16;6.43;;;4.32;;
64387;SDS011;50709;52.648;4.764;2023-06-22T14:14:43;6.68;;;4.13;;
64387;SDS011;50709;52.648;4.764;2023-06-22T14:17:08;6.38;;;4.30;;
64387;SDS011;50709;52.648;4.764;2023-06-22T14:19:33;5.97;;;4.20;;
64387;SDS011;50709;52.648;4.764;2023-06-22T14:21:59;6.60;;;3.97;;
64387;SDS011;50709;52.648;4.764;2023-06-22T14:24:24;7.50;;;4.15;;
64387;SDS011;50709;52.648;4.764;2023-06-22T14:26:50;5.95;;;3.88;;
64387;SDS011;50709;52.648;4.764;2023-06-22T14:29:15;5.03;;;3.60;;